Time;durP1;ratioP1;P1;durP2;ratioP2;P2;SDS_P1;SDS_P2;PMS_P1;PMS_P2;Temp;Humidity;BMP_temperature;BMP_pressure;BME280_temperature;BME280_humidity;BME280_pressure;Samples;Min_cycle;Max_cycle;Signal;HPM_P1;HPM_P2
2022/01/24 00:02:01;;;;;;;12.57;4.70;;;6.60;99.90;;;;;;5094839;28;20028;-68
2022/01/24 00:04:27;;;;;;;15.32;4.53;;;6.60;99.90;;;;;;5095427;28;20103;-69
2022/01/24 00:06:52;;;;;;;9.52;3.92;;;6.60;99.90;;;;;;5095430;28;20020;-70
2022/01/24 00:09:18;;;;;;;8.93;4.60;;;6.60;99.90;;;;;;5076328;28;20045;-69
2022/01/24 00:27:51;;;;;;;13.73;5.07;;;6.50;99.90;;;;;;5095339;28;20047;-69
2022/01/24 00:30:17;;;;;;;12.95;6.43;;;6.50;99.90;;;;;;5094073;28;20020;-68
2022/01/24 00:32:43;;;;;;;10.38;5.40;;;6.50;99.90;;;;;;5095015;28;20028;-71
2022/01/24 00:35:10;;;;;;;16.60;5.68;;;6.50;99.90;;;;;;5094252;28;20123;-69
2022/01/24 00:37:35;;;;;;;14.27;6.63;;;6.50;99.90;;;;;;5094064;28;20059;-71
2022/01/24 00:40:02;;;;;;;10.95;5.03;;;6.50;99.90;;;;;;5094846;28;20059;-67
2022/01/24 00:42:50;;;;;;;16.05;6.80;;;6.50;99.90;;;;;;5093666;28;20052;-65
2022/01/24 00:45:28;;;;;;;12.07;5.90;;;6.50;99.90;;;;;;5094819;28;20028;-71
2022/01/24 00:53:31;;;;;;;10.48;5.03;;;6.50;99.90;;;;;;5094805;28;20127;-69
2022/01/24 00:55:58;;;;;;;11.00;5.50;;;6.50;99.90;;;;;;5094374;28;20435;-67
2022/01/24 00:58:24;;;;;;;13.25;5.47;;;6.50;99.90;;;;;;5093579;28;20032;-68
2022/01/24 01:00:50;;;;;;;10.32;5.47;;;6.50;99.90;;;;;;5094359;28;20363;-68
2022/01/24 01:03:17;;;;;;;11.02;5.47;;;6.50;99.90;;;;;;5094241;28;20046;-67
2022/01/24 01:19:20;;;;;;;11.55;5.22;;;6.40;99.90;;;;;;5093258;28;20551;-69
2022/01/24 01:21:45;;;;;;;11.60;5.45;;;6.40;99.90;;;;;;5093965;28;20020;-70
2022/01/24 01:24:11;;;;;;;14.32;6.32;;;6.40;99.90;;;;;;5093951;28;20020;-67
2022/01/24 01:26:47;;;;;;;14.07;6.53;;;6.30;99.90;;;;;;5092827;28;20406;-71
2022/01/24 01:29:21;;;;;;;15.98;6.72;;;6.40;99.90;;;;;;5094150;28;20027;-68
2022/01/24 01:32:01;;;;;;;17.23;6.70;;;6.40;99.90;;;;;;5093152;28;20035;-71
2022/01/24 01:37:40;;;;;;;;;;;6.40;99.90;;;;;;5054687;28;20173;-69
2022/01/24 01:56:10;;;;;;;;;;;6.30;99.90;;;;;;5093787;28;20371;-71
2022/01/24 01:58:36;;;;;;;11.57;5.40;;;6.20;99.90;;;;;;5093001;28;19962;-70
2022/01/24 02:01:04;;;;;;;14.23;5.70;;;6.20;99.90;;;;;;5092564;28;20020;-70
2022/01/24 02:03:30;;;;;;;12.23;5.32;;;6.20;99.90;;;;;;5093198;28;20053;-68
2022/01/24 02:05:56;;;;;;;10.82;4.55;;;6.20;99.90;;;;;;5093061;28;20518;-68
2022/01/24 02:08:23;;;;;;;8.45;5.25;;;6.20;99.90;;;;;;5092285;28;20024;-72
2022/01/24 02:10:49;;;;;;;13.15;5.32;;;6.20;99.90;;;;;;5093087;28;20016;-72
2022/01/24 02:13:15;;;;;;;12.68;6.20;;;6.20;99.90;;;;;;5092840;28;20061;-70
2022/01/24 02:16:09;;;;;;;16.10;5.85;;;6.20;99.90;;;;;;5092246;28;20016;-71
2022/01/24 02:18:45;;;;;;;10.60;5.47;;;6.20;99.90;;;;;;5092686;28;20043;-69
2022/01/24 02:24:02;;;;;;;13.57;6.07;;;6.20;99.90;;;;;;5093020;28;20042;-68
2022/01/24 02:26:28;;;;;;;10.63;5.25;;;6.20;99.90;;;;;;5092576;28;20457;-69
2022/01/24 02:29:04;;;;;;;13.07;6.13;;;6.20;99.90;;;;;;5091860;28;20414;-69
2022/01/24 02:31:41;;;;;;;10.75;5.72;;;6.20;99.90;;;;;;5092695;28;20043;-69
2022/01/24 02:34:47;;;;;;;10.45;5.55;;;6.20;99.90;;;;;;5092504;28;20467;-66
2022/01/24 02:37:17;;;;;;;16.73;6.28;;;6.20;99.90;;;;;;5091868;28;20031;-70
2022/01/24 02:39:54;;;;;;;13.63;6.05;;;6.10;99.90;;;;;;5092570;28;20092;-70
2022/01/24 02:51:07;;;;;;;15.18;7.07;;;6.10;99.90;;;;;;5091770;28;20039;-68
2022/01/24 02:53:34;;;;;;;14.48;7.05;;;6.10;99.90;;;;;;5091976;28;20455;-71
2022/01/24 02:56:01;;;;;;;14.35;6.57;;;6.10;99.90;;;;;;5092351;28;20020;-69
2022/01/24 02:58:26;;;;;;;14.90;6.55;;;6.10;99.90;;;;;;5091827;28;20097;-68
2022/01/24 03:00:53;;;;;;;15.27;6.63;;;6.10;99.90;;;;;;5092441;28;20020;-69
2022/01/24 03:03:19;;;;;;;17.23;6.63;;;6.20;99.90;;;;;;5091532;28;20406;-69
2022/01/24 03:05:45;;;;;;;16.27;7.90;;;6.10;99.90;;;;;;5092248;28;20536;-69
2022/01/24 03:08:12;;;;;;;16.50;7.55;;;6.20;99.90;;;;;;5092240;28;20028;-68
2022/01/24 03:10:41;;;;;;;12.80;6.82;;;6.10;99.90;;;;;;5091482;28;20028;-68
2022/01/24 03:15:43;;;;;;;15.77;7.10;;;6.20;99.90;;;;;;5091797;28;20028;-67
2022/01/24 03:18:10;;;;;;;13.95;6.32;;;6.20;99.90;;;;;;5091359;28;20099;-68
2022/01/24 03:20:36;;;;;;;14.02;6.28;;;6.10;99.90;;;;;;5092191;28;20091;-70
2022/01/24 03:23:03;;;;;;;18.23;7.72;;;6.20;99.90;;;;;;5092011;28;20485;-67
2022/01/24 03:25:28;;;;;;;14.52;7.05;;;6.10;99.90;;;;;;5091250;28;20367;-69
2022/01/24 03:27:54;;;;;;;13.88;6.82;;;6.20;99.90;;;;;;5092254;28;20020;-67
2022/01/24 03:30:20;;;;;;;18.40;7.47;;;6.20;99.90;;;;;;5092286;28;20020;-68
2022/01/24 03:32:45;;;;;;;11.73;6.90;;;6.20;99.90;;;;;;5091366;28;20382;-68
2022/01/24 03:35:11;;;;;;;16.52;6.72;;;6.20;99.90;;;;;;5091728;28;20074;-67
2022/01/24 03:37:37;;;;;;;16.95;7.72;;;6.20;99.90;;;;;;5091933;28;20116;-68
2022/01/24 03:40:04;;;;;;;14.57;7.55;;;6.10;99.90;;;;;;5091059;28;20475;-67
2022/01/24 03:42:30;;;;;;;17.05;7.57;;;6.20;99.90;;;;;;5091602;28;20032;-68
2022/01/24 03:44:59;;;;;;;16.98;7.28;;;6.10;99.90;;;;;;5091669;28;20024;-67
2022/01/24 03:50:08;;;;;;;18.33;7.10;;;6.20;99.90;;;;;;5091974;28;20166;-68
2022/01/24 03:52:34;;;;;;;15.90;7.43;;;6.20;99.90;;;;;;5091201;28;20024;-68
2022/01/24 03:55:02;;;;;;;16.17;7.78;;;6.20;99.90;;;;;;5091913;28;20032;-70
2022/01/24 03:57:28;;;;;;;16.98;8.23;;;6.20;99.90;;;;;;5091797;28;20063;-69
2022/01/24 03:59:54;;;;;;;16.02;7.43;;;6.20;99.90;;;;;;5091905;28;20067;-68
2022/01/24 04:02:23;;;;;;;19.65;7.70;;;6.20;99.90;;;;;;5095483;28;20027;-66
2022/01/24 04:04:50;;;;;;;21.60;7.72;;;6.20;99.90;;;;;;5094766;28;20020;-67
2022/01/24 04:07:16;;;;;;;16.42;7.25;;;6.20;99.90;;;;;;5094362;28;20471;-67
2022/01/24 04:09:42;;;;;;;17.08;7.35;;;6.20;99.90;;;;;;5095318;28;20031;-68
2022/01/24 04:12:13;;;;;;;18.20;7.22;;;6.20;99.90;;;;;;5095474;28;20024;-68
2022/01/24 04:15:06;;;;;;;19.92;8.63;;;6.20;99.90;;;;;;5094575;28;20028;-67
2022/01/24 04:17:37;;;;;;;24.48;8.20;;;6.20;99.90;;;;;;5095010;28;20306;-67
2022/01/24 04:22:50;;;;;;;17.13;8.05;;;6.20;99.90;;;;;;5094804;28;20093;-70
2022/01/24 04:25:22;;;;;;;18.05;7.97;;;6.20;99.90;;;;;;5094747;28;20471;-67
2022/01/24 04:27:48;;;;;;;17.00;7.25;;;6.20;99.90;;;;;;5094221;28;20201;-69
2022/01/24 04:30:14;;;;;;;16.58;7.00;;;6.20;99.90;;;;;;5094913;28;20046;-68
2022/01/24 04:32:40;;;;;;;16.10;7.68;;;6.20;99.90;;;;;;5095011;28;20103;-65
2022/01/24 04:35:06;;;;;;;14.10;7.72;;;6.10;99.90;;;;;;5094149;28;20399;-67
2022/01/24 04:37:31;;;;;;;14.02;7.45;;;6.20;99.90;;;;;;5094861;28;20128;-67
2022/01/24 04:39:57;;;;;;;16.38;7.30;;;6.10;99.90;;;;;;5094390;28;20424;-69
2022/01/24 04:42:32;;;;;;;14.90;6.95;;;6.10;99.90;;;;;;5093661;28;20024;-68
2022/01/24 04:45:28;;;;;;;16.15;7.05;;;6.10;99.90;;;;;;5094836;28;20482;-66
2022/01/24 04:53:11;;;;;;;18.33;8.07;;;6.10;99.90;;;;;;5094332;28;20024;-67
2022/01/24 04:55:36;;;;;;;14.32;6.68;;;6.10;99.90;;;;;;5093557;28;20046;-67
2022/01/24 04:58:02;;;;;;;15.82;6.25;;;6.10;99.90;;;;;;5094316;28;20024;-66
2022/01/24 05:00:27;;;;;;;15.77;8.00;;;6.10;99.90;;;;;;5094147;28;20036;-68
2022/01/24 05:02:53;;;;;;;18.77;8.02;;;6.10;99.90;;;;;;5093550;28;20028;-66
2022/01/24 05:05:21;;;;;;;16.08;7.50;;;6.10;99.90;;;;;;5094225;28;20024;-66
2022/01/24 05:07:48;;;;;;;16.73;7.70;;;6.10;99.90;;;;;;5094337;28;20020;-68
2022/01/24 05:10:40;;;;;;;15.93;7.80;;;6.10;99.90;;;;;;5093381;28;20016;-66
2022/01/24 05:23:27;;;;;;;12.85;6.45;;;6.10;99.90;;;;;;5061840;28;20072;-68
2022/01/24 05:24:08;;;;;;;18.00;7.30;;;6.10;99.90;;;;;;5079260;28;20102;-65
2022/01/24 05:26:33;;;;;;;15.60;6.65;;;6.10;99.90;;;;;;5093584;28;20040;-68
2022/01/24 05:28:59;;;;;;;15.18;6.35;;;6.10;99.90;;;;;;5093886;28;20540;-69
2022/01/24 05:31:24;;;;;;;15.13;6.13;;;6.10;99.90;;;;;;5092912;28;20471;-67
2022/01/24 05:33:50;;;;;;;11.88;6.00;;;6.10;99.90;;;;;;5093717;28;20028;-67
2022/01/24 05:36:15;;;;;;;12.05;5.90;;;6.10;99.90;;;;;;5093652;28;20078;-66
2022/01/24 05:38:41;;;;;;;10.90;6.18;;;6.10;99.90;;;;;;5092689;28;20043;-69
2022/01/24 05:41:06;;;;;;;15.50;6.85;;;6.10;99.90;;;;;;5093417;28;20024;-66
2022/01/24 05:43:33;;;;;;;16.67;6.93;;;6.10;99.90;;;;;;5093250;28;20016;-67
2022/01/24 05:45:59;;;;;;;15.27;6.30;;;6.10;99.90;;;;;;5092648;28;20063;-66
2022/01/24 05:48:25;;;;;;;11.40;6.03;;;6.20;99.90;;;;;;5093424;28;20047;-66
2022/01/24 05:50:50;;;;;;;12.18;5.80;;;6.10;99.90;;;;;;5093397;28;20024;-67
2022/01/24 05:53:16;;;;;;;11.25;5.40;;;6.10;99.90;;;;;;5092426;28;20020;-68
2022/01/24 05:55:41;;;;;;;13.65;6.90;;;6.20;99.90;;;;;;5093099;28;20032;-68
2022/01/24 05:58:07;;;;;;;13.60;6.22;;;6.10;99.90;;;;;;5093094;28;20368;-68
2022/01/24 06:00:32;;;;;;;14.10;5.63;;;6.20;99.90;;;;;;5092379;28;20099;-68
2022/01/24 06:02:58;;;;;;;13.32;6.03;;;6.10;99.90;;;;;;5093208;28;20024;-67
2022/01/24 06:05:24;;;;;;;12.77;6.05;;;6.10;99.90;;;;;;5093217;28;20012;-66
2022/01/24 06:07:49;;;;;;;18.75;6.03;;;6.20;99.90;;;;;;5092392;28;20081;-66
2022/01/24 06:10:15;;;;;;;16.73;7.40;;;6.10;99.90;;;;;;5092637;28;20024;-66
2022/01/24 06:12:41;;;;;;;17.58;8.07;;;6.10;99.90;;;;;;5092818;28;20102;-66
2022/01/24 06:15:06;;;;;;;15.80;7.28;;;6.20;99.90;;;;;;5092255;28;20024;-65
2022/01/24 06:17:32;;;;;;;15.48;7.53;;;6.20;99.90;;;;;;5092864;28;20115;-65
2022/01/24 06:19:58;;;;;;;19.08;8.20;;;6.10;99.90;;;;;;5092815;28;20032;-67
2022/01/24 06:22:23;;;;;;;19.80;8.73;;;6.20;99.90;;;;;;5091927;28;20047;-66
2022/01/24 06:24:49;;;;;;;20.27;8.40;;;6.10;99.90;;;;;;5092837;28;20039;-67
2022/01/24 06:27:14;;;;;;;19.27;7.53;;;6.20;99.90;;;;;;5091627;28;20055;-68
2022/01/24 06:29:40;;;;;;;24.65;10.07;;;6.20;99.90;;;;;;5092771;28;20024;-66
2022/01/24 06:32:06;;;;;;;20.67;8.75;;;6.20;99.90;;;;;;5092677;28;20027;-67
2022/01/24 06:34:31;;;;;;;24.85;9.75;;;6.20;99.90;;;;;;5091402;28;20056;-66
2022/01/24 06:36:57;;;;;;;23.67;9.65;;;6.10;99.90;;;;;;5092529;28;20023;-67
2022/01/24 06:39:22;;;;;;;20.50;9.88;;;6.10;99.90;;;;;;5092465;28;20487;-66
2022/01/24 06:42:04;;;;;;;21.52;7.95;;;6.10;99.90;;;;;;5091515;28;20024;-66
2022/01/24 06:44:29;;;;;;;28.80;10.13;;;6.10;99.90;;;;;;5092225;28;20085;-66
2022/01/24 06:46:55;;;;;;;19.00;9.68;;;6.10;99.90;;;;;;5092478;28;20467;-67
2022/01/24 06:49:20;;;;;;;20.00;9.68;;;6.10;99.90;;;;;;5091623;28;20535;-67
2022/01/24 06:51:46;;;;;;;19.05;8.85;;;6.20;99.90;;;;;;5092394;28;20080;-66
2022/01/24 06:54:11;;;;;;;21.58;8.63;;;6.10;99.90;;;;;;5092244;28;20108;-68
2022/01/24 06:56:37;;;;;;;21.00;8.80;;;6.20;99.90;;;;;;5091618;28;20020;-67
2022/01/24 06:59:03;;;;;;;21.13;8.40;;;6.10;99.90;;;;;;5092457;28;20028;-65
2022/01/24 07:01:28;;;;;;;17.13;8.18;;;6.10;99.90;;;;;;5092247;28;20493;-66
2022/01/24 07:03:54;;;;;;;19.45;9.20;;;6.10;99.90;;;;;;5091467;28;20383;-66
2022/01/24 07:06:19;;;;;;;17.88;8.52;;;6.10;99.90;;;;;;5091096;28;20027;-66
2022/01/24 07:08:45;;;;;;;21.10;8.95;;;6.10;99.90;;;;;;5092363;28;20032;-66
2022/01/24 07:11:10;;;;;;;20.10;8.15;;;6.10;99.90;;;;;;5091157;28;20089;-65
2022/01/24 07:13:36;;;;;;;16.27;7.40;;;6.10;99.90;;;;;;5092343;28;20506;-65
2022/01/24 07:16:04;;;;;;;22.85;8.57;;;6.10;99.90;;;;;;5092179;28;20368;-66
2022/01/24 07:20:58;;;;;;;31.23;12.30;;;6.10;99.90;;;;;;5092251;28;20498;-66
2022/01/24 07:23:24;;;;;;;32.03;11.50;;;6.10;99.90;;;;;;5091135;28;20035;-67
2022/01/24 07:25:50;;;;;;;29.75;11.52;;;6.10;99.90;;;;;;5091816;28;20109;-66
2022/01/24 07:28:16;;;;;;;28.15;12.43;;;6.10;99.90;;;;;;5092027;28;20017;-66
2022/01/24 07:30:42;;;;;;;29.02;11.88;;;6.10;99.90;;;;;;5091281;28;20034;-65
2022/01/24 07:33:07;;;;;;;29.23;12.18;;;6.10;99.90;;;;;;5091747;28;20016;-67
2022/01/24 07:35:33;;;;;;;37.13;14.45;;;6.10;99.90;;;;;;5093702;28;20024;-66
2022/01/24 07:37:59;;;;;;;29.65;13.35;;;6.10;99.90;;;;;;5084751;28;20035;-66
2022/01/24 07:40:25;;;;;;;27.63;11.07;;;6.10;99.90;;;;;;5085317;28;20367;-67
2022/01/24 07:45:36;;;;;;;25.95;11.32;;;6.10;99.90;;;;;;5085306;28;20119;-67
2022/01/24 07:48:02;;;;;;;35.03;13.23;;;6.10;99.90;;;;;;5086845;28;20027;-65
2022/01/24 07:50:28;;;;;;;30.58;12.82;;;6.10;99.90;;;;;;5094823;28;20024;-67
2022/01/24 07:52:55;;;;;;;31.95;12.32;;;6.10;99.90;;;;;;5082365;28;20434;-67
2022/01/24 07:55:22;;;;;;;33.75;13.43;;;6.10;99.90;;;;;;5090914;28;20023;-64
2022/01/24 07:57:47;;;;;;;41.03;16.13;;;6.10;99.90;;;;;;5094870;28;20039;-65
2022/01/24 08:00:13;;;;;;;35.63;15.18;;;6.10;99.90;;;;;;5093851;28;20027;-66
2022/01/24 08:02:39;;;;;;;38.55;16.05;;;6.10;99.90;;;;;;5084745;28;20035;-65
2022/01/24 08:05:07;;;;;;;43.05;17.42;;;6.10;99.90;;;;;;5085614;28;20020;-65
2022/01/24 08:07:33;;;;;;;44.25;18.92;;;6.20;99.90;;;;;;5082028;28;20016;-66
2022/01/24 08:09:58;;;;;;;50.03;17.15;;;6.20;99.90;;;;;;5084544;28;20280;-66
2022/01/24 08:12:24;;;;;;;37.75;14.70;;;6.20;99.90;;;;;;5084167;28;20081;-65
2022/01/24 08:14:50;;;;;;;41.78;14.85;;;6.20;99.90;;;;;;5082170;28;20020;-66
2022/01/24 08:17:15;;;;;;;37.95;16.05;;;6.20;99.90;;;;;;5079089;28;20021;-67
2022/01/24 08:19:41;;;;;;;40.00;15.60;;;6.20;99.90;;;;;;5087249;28;20032;-65
2022/01/24 08:22:07;;;;;;;42.60;16.15;;;6.20;99.90;;;;;;5076482;28;20597;-65
2022/01/24 08:24:32;;;;;;;41.03;16.67;;;6.20;99.90;;;;;;5074319;28;20063;-66
2022/01/24 08:26:58;;;;;;;36.40;15.30;;;6.20;99.90;;;;;;5073226;28;20429;-65
2022/01/24 08:29:23;;;;;;;39.83;14.85;;;6.20;99.90;;;;;;5073683;28;20029;-65
2022/01/24 08:31:49;;;;;;;48.13;17.05;;;6.30;99.90;;;;;;5087131;28;20024;-67
2022/01/24 08:34:14;;;;;;;47.97;16.98;;;6.30;99.90;;;;;;5093037;28;20019;-66
2022/01/24 08:36:40;;;;;;;37.05;15.38;;;6.30;99.90;;;;;;5094425;28;20016;-65
2022/01/24 08:39:08;;;;;;;42.70;16.42;;;6.30;99.90;;;;;;5093909;28;20471;-67
2022/01/24 08:41:59;;;;;;;32.60;13.73;;;6.30;99.90;;;;;;5093303;28;20056;-66
2022/01/24 08:45:44;;;;;;;45.92;16.38;;;6.30;99.90;;;;;;5094054;28;20568;-67
2022/01/24 08:47:19;;;;;;;44.33;17.98;;;6.30;99.90;;;;;;5093343;28;20043;-66
2022/01/24 08:49:45;;;;;;;43.08;16.95;;;6.30;99.90;;;;;;5093287;28;20017;-66
2022/01/24 08:52:11;;;;;;;44.03;16.45;;;6.30;99.90;;;;;;5093633;28;20064;-66
2022/01/24 08:54:36;;;;;;;41.17;14.98;;;6.40;99.90;;;;;;5094083;28;20020;-65
2022/01/24 08:57:03;;;;;;;38.45;15.02;;;6.40;99.90;;;;;;5093182;28;20178;-65
2022/01/24 08:59:30;;;;;;;36.42;16.33;;;6.40;99.90;;;;;;5093654;28;20036;-66
2022/01/24 09:01:56;;;;;;;38.70;15.30;;;6.40;99.90;;;;;;5093055;28;20020;-66
2022/01/24 09:04:21;;;;;;;45.58;17.48;;;6.40;99.90;;;;;;5093190;28;20069;-66
2022/01/24 09:06:47;;;;;;;44.25;18.98;;;6.40;99.90;;;;;;5090677;28;20112;-64
2022/01/24 09:09:14;;;;;;;39.75;16.63;;;6.40;99.90;;;;;;5080259;28;20028;-65
2022/01/24 09:11:40;;;;;;;35.58;15.23;;;6.40;99.90;;;;;;5073470;28;20035;-65
2022/01/24 09:14:07;;;;;;;40.08;15.57;;;6.40;99.90;;;;;;5081993;28;20020;-65
2022/01/24 09:16:33;;;;;;;42.55;17.40;;;6.40;99.90;;;;;;5092673;28;20039;-65
2022/01/24 09:18:59;;;;;;;52.75;19.48;;;6.40;99.90;;;;;;5093378;28;20115;-66
2022/01/24 09:21:27;;;;;;;45.70;19.25;;;6.40;99.90;;;;;;5092324;28;20146;-65
2022/01/24 09:23:53;;;;;;;44.83;17.92;;;6.50;99.90;;;;;;5092739;28;20542;-65
2022/01/24 09:26:19;;;;;;;42.42;16.75;;;6.50;99.90;;;;;;5082906;28;20135;-65
2022/01/24 09:28:44;;;;;;;39.00;18.30;;;6.50;99.90;;;;;;5080940;28;20039;-67
2022/01/24 09:31:10;;;;;;;43.65;17.95;;;6.50;99.90;;;;;;5081434;28;20017;-66
2022/01/24 09:33:36;;;;;;;46.78;18.40;;;6.50;99.90;;;;;;5077681;28;20843;-65
2022/01/24 09:36:03;;;;;;;43.42;16.85;;;6.50;99.90;;;;;;5082938;28;20024;-64
2022/01/24 09:38:32;;;;;;;37.22;15.85;;;6.50;99.90;;;;;;5083046;28;20024;-66
2022/01/24 09:40:59;;;;;;;45.90;17.75;;;6.60;99.90;;;;;;5082374;28;20035;-63
2022/01/24 09:43:25;;;;;;;43.40;19.13;;;6.60;99.90;;;;;;5083284;28;20012;-66
2022/01/24 09:45:51;;;;;;;50.95;20.70;;;6.60;99.90;;;;;;5078122;28;20447;-66
2022/01/24 09:48:17;;;;;;;48.80;19.33;;;6.60;99.90;;;;;;5091632;28;20020;-66
2022/01/24 09:50:45;;;;;;;47.20;18.50;;;6.60;99.90;;;;;;5092462;28;20034;-64
2022/01/24 09:53:14;;;;;;;41.08;16.02;;;6.50;99.90;;;;;;5091551;28;20107;-64
2022/01/24 09:55:39;;;;;;;;;;;6.50;99.90;;;;;;5093307;28;20085;-65
2022/01/24 09:58:05;;;;;;;39.50;16.17;;;6.50;99.90;;;;;;5090766;28;19908;-64
2022/01/24 10:00:31;;;;;;;45.95;17.05;;;6.60;99.90;;;;;;5092676;28;20028;-64
2022/01/24 10:02:58;;;;;;;51.28;18.17;;;6.50;99.90;;;;;;5092142;28;20088;-64
2022/01/24 10:05:27;;;;;;;51.83;19.25;;;6.50;99.90;;;;;;5081597;28;20030;-65
2022/01/24 10:08:00;;;;;;;40.75;16.48;;;6.50;99.90;;;;;;5084443;28;20020;-63
2022/01/24 10:10:33;;;;;;;44.60;17.95;;;6.60;99.90;;;;;;5081366;28;20051;-66
2022/01/24 10:16:35;;;;;;;48.22;18.98;;;6.50;99.90;;;;;;5082477;28;20036;-65
2022/01/24 10:19:16;;;;;;;50.53;19.05;;;6.50;99.90;;;;;;5080937;28;20074;-64
2022/01/24 10:21:48;;;;;;;44.88;17.90;;;6.60;99.90;;;;;;5080400;28;20031;-66
2022/01/24 10:24:31;;;;;;;51.65;20.15;;;6.60;99.90;;;;;;5080916;28;20391;-65
2022/01/24 10:27:15;;;;;;;42.15;16.70;;;6.60;99.90;;;;;;5081266;28;20450;-66
2022/01/24 10:29:49;;;;;;;45.38;18.65;;;6.60;99.90;;;;;;5077166;28;20024;-66
2022/01/24 10:32:35;;;;;;;47.90;18.45;;;6.60;99.90;;;;;;5071280;28;20029;-67
2022/01/24 10:35:21;;;;;;;51.22;18.35;;;6.60;99.90;;;;;;5071256;28;20589;-66
2022/01/24 10:37:50;;;;;;;43.38;17.63;;;6.70;99.90;;;;;;5071907;28;20020;-64
2022/01/24 10:40:53;;;;;;;46.63;18.65;;;6.60;99.90;;;;;;5070554;28;20487;-65
2022/01/24 10:43:27;;;;;;;46.97;17.52;;;6.60;99.90;;;;;;5071225;28;20027;-63
2022/01/24 10:45:56;;;;;;;42.55;17.75;;;6.60;99.90;;;;;;5071866;28;20020;-64
2022/01/24 10:48:30;;;;;;;51.38;20.17;;;6.60;99.90;;;;;;5079386;28;20020;-63
2022/01/24 10:51:05;;;;;;;58.17;20.60;;;6.60;99.90;;;;;;5077890;28;20089;-65
2022/01/24 10:53:42;;;;;;;48.70;18.50;;;6.60;99.90;;;;;;5075831;28;20436;-64
2022/01/24 10:56:31;;;;;;;47.38;18.02;;;6.60;99.90;;;;;;5079889;28;20024;-65
2022/01/24 10:59:18;;;;;;;49.65;19.13;;;6.60;99.90;;;;;;5082082;28;20028;-65
2022/01/24 11:01:52;;;;;;;53.80;21.10;;;6.60;99.90;;;;;;5085507;28;20043;-64
2022/01/24 11:04:20;;;;;;;52.50;19.80;;;6.60;99.90;;;;;;5091311;28;20046;-64
2022/01/24 11:06:54;;;;;;;49.95;20.70;;;6.60;99.90;;;;;;5091332;28;20107;-64
2022/01/24 11:09:25;;;;;;;51.95;20.88;;;6.60;99.90;;;;;;5091336;28;20406;-64
2022/01/24 11:11:59;;;;;;;51.80;19.73;;;6.60;99.90;;;;;;5095963;28;20383;-64
2022/01/24 11:14:26;;;;;;;48.00;19.30;;;6.60;99.90;;;;;;5095708;28;20020;-63
2022/01/24 11:16:54;;;;;;;52.28;19.30;;;6.50;99.90;;;;;;5095659;28;20536;-63
2022/01/24 11:22:18;;;;;;;50.85;20.15;;;6.50;99.90;;;;;;5074796;28;20506;-63
2022/01/24 11:24:51;;;;;;;48.33;19.13;;;6.50;99.90;;;;;;5093622;28;20115;-64
2022/01/24 11:27:16;;;;;;;51.03;19.38;;;6.50;99.90;;;;;;5092453;28;20040;-63
2022/01/24 11:29:44;;;;;;;48.33;18.75;;;6.50;99.90;;;;;;5074602;28;20099;-64
2022/01/24 11:32:27;;;;;;;50.65;18.90;;;6.50;99.90;;;;;;5074922;28;20028;-65
2022/01/24 11:34:56;;;;;;;35.30;15.80;;;6.50;99.90;;;;;;5074239;28;20035;-65
2022/01/24 11:37:35;;;;;;;48.15;18.23;;;6.50;99.90;;;;;;5072192;28;20074;-65
2022/01/24 11:40:11;;;;;;;50.47;17.55;;;6.50;99.90;;;;;;5074550;28;20040;-65
2022/01/24 11:42:37;;;;;;;41.35;17.80;;;6.40;99.90;;;;;;5074728;28;20020;-63
2022/01/24 11:45:13;;;;;;;40.10;15.55;;;6.40;99.90;;;;;;5074263;28;20073;-65
2022/01/24 11:47:39;;;;;;;41.80;17.35;;;6.40;99.90;;;;;;5075106;28;20043;-64
2022/01/24 11:50:23;;;;;;;40.75;17.48;;;6.40;99.90;;;;;;5074383;28;20020;-64
2022/01/24 11:52:49;;;;;;;54.13;19.20;;;6.40;99.90;;;;;;5074005;28;20025;-63
2022/01/24 11:55:17;;;;;;;47.88;19.05;;;6.40;99.90;;;;;;5074471;28;20027;-63
2022/01/24 11:57:50;;;;;;;48.72;19.30;;;6.40;99.90;;;;;;5073978;28;20071;-63
2022/01/24 12:00:20;;;;;;;53.95;19.30;;;6.40;99.90;;;;;;5074640;28;20036;-63
2022/01/24 12:02:52;;;;;;;42.33;18.08;;;6.40;99.90;;;;;;5087194;28;20020;-64
2022/01/24 12:05:24;;;;;;;45.45;19.27;;;6.40;99.90;;;;;;5093790;28;20025;-63
2022/01/24 12:07:55;;;;;;;49.03;17.58;;;6.50;99.90;;;;;;5090347;28;20028;-64
2022/01/24 12:10:25;;;;;;;46.58;17.67;;;6.50;99.90;;;;;;5074217;28;20398;-63
2022/01/24 12:13:01;;;;;;;51.95;19.30;;;6.50;99.90;;;;;;5087918;28;20062;-64
2022/01/24 12:15:41;;;;;;;46.30;18.40;;;6.50;99.90;;;;;;5094289;28;20108;-64
2022/01/24 12:18:10;;;;;;;42.80;17.60;;;6.50;99.90;;;;;;5094308;28;20023;-64
2022/01/24 12:20:35;;;;;;;43.33;18.30;;;6.50;99.90;;;;;;5093220;28;20537;-63
2022/01/24 12:23:25;;;;;;;44.17;17.50;;;6.50;99.90;;;;;;5094558;28;20100;-64
2022/01/24 12:26:03;;;;;;;40.78;17.27;;;6.50;99.90;;;;;;5093494;28;20036;-63
2022/01/24 12:28:32;;;;;;;46.35;19.67;;;6.50;99.90;;;;;;5093446;28;20032;-63
2022/01/24 12:31:02;;;;;;;45.40;18.88;;;6.50;99.90;;;;;;5087885;28;20372;-63
2022/01/24 12:33:57;;;;;;;42.85;18.73;;;6.50;99.90;;;;;;5083510;28;20020;-64
2022/01/24 12:36:38;;;;;;;40.30;17.42;;;6.50;99.90;;;;;;5081533;28;20028;-63
2022/01/24 12:39:24;;;;;;;42.28;16.02;;;6.50;99.90;;;;;;5093702;28;20386;-64
2022/01/24 12:41:59;;;;;;;47.20;18.55;;;6.50;99.90;;;;;;5085540;28;20082;-63
2022/01/24 12:47:03;;;;;;;35.15;15.65;;;6.50;99.90;;;;;;5081991;28;20127;-63
2022/01/24 12:49:30;;;;;;;35.05;15.48;;;6.50;99.90;;;;;;5083203;28;20101;-64
2022/01/24 12:52:03;;;;;;;35.33;15.73;;;6.40;99.90;;;;;;5084181;28;20513;-63
2022/01/24 12:54:35;;;;;;;36.78;14.77;;;6.40;99.90;;;;;;5081909;28;20023;-64
2022/01/24 12:57:05;;;;;;;35.85;15.23;;;6.40;99.90;;;;;;5064153;28;20024;-62
2022/01/24 12:59:31;;;;;;;35.72;15.20;;;6.30;99.90;;;;;;5082683;28;20126;-64
2022/01/24 13:02:00;;;;;;;35.22;16.00;;;6.30;99.90;;;;;;5089595;28;20024;-63
2022/01/24 13:04:45;;;;;;;31.90;15.70;;;6.40;99.90;;;;;;5082812;28;20024;-62
2022/01/24 13:07:11;;;;;;;38.85;15.00;;;6.30;99.90;;;;;;5082949;28;20055;-64
2022/01/24 13:09:37;;;;;;;43.75;16.40;;;6.30;99.90;;;;;;5082722;28;20047;-64
2022/01/24 13:12:08;;;;;;;34.88;14.88;;;6.30;99.90;;;;;;5081759;28;20013;-64
2022/01/24 13:14:47;;;;;;;46.33;16.02;;;6.30;99.90;;;;;;5075027;28;20051;-64
2022/01/24 13:22:57;;;;;;;44.47;16.00;;;6.30;99.90;;;;;;5072807;28;20096;-63
2022/01/24 13:25:36;;;;;;;37.92;15.60;;;6.30;99.90;;;;;;5082690;28;20032;-63
2022/01/24 13:28:06;;;;;;;47.45;17.60;;;6.30;99.90;;;;;;5087968;28;20040;-63
2022/01/24 13:30:34;;;;;;;41.90;15.15;;;6.30;99.90;;;;;;5073171;28;20036;-63
2022/01/24 13:33:01;;;;;;;;;;;6.30;99.90;;;;;;5080587;28;20483;-63
2022/01/24 13:35:36;;;;;;;33.65;15.70;;;6.20;99.90;;;;;;5072598;28;20009;-63
2022/01/24 13:38:19;;;;;;;33.40;14.77;;;6.20;99.90;;;;;;5072258;28;20016;-64
2022/01/24 13:41:03;;;;;;;34.92;14.88;;;6.20;99.90;;;;;;5072461;28;20032;-63
2022/01/24 13:43:31;;;;;;;42.20;15.70;;;6.20;99.90;;;;;;5071673;28;20029;-62
2022/01/24 13:45:56;;;;;;;36.07;16.13;;;6.20;99.90;;;;;;5091194;28;20024;-63
2022/01/24 13:48:24;;;;;;;34.15;15.00;;;6.20;99.90;;;;;;5092345;28;20617;-63
2022/01/24 13:50:56;;;;;;;41.58;16.02;;;6.10;99.90;;;;;;5092182;28;20500;-62
2022/01/24 13:53:35;;;;;;;39.00;15.20;;;6.10;99.90;;;;;;5092393;28;20024;-63
2022/01/24 13:56:24;;;;;;;37.42;15.10;;;6.20;99.90;;;;;;5092617;28;20028;-63
2022/01/24 13:59:19;;;;;;;38.20;16.85;;;6.20;99.90;;;;;;5091745;28;20059;-63
2022/01/24 14:02:03;;;;;;;36.08;13.85;;;6.20;99.90;;;;;;5055352;28;20032;-64
2022/01/24 14:04:31;;;;;;;38.75;16.13;;;6.10;99.90;;;;;;5091693;28;20394;-63
2022/01/24 14:07:01;;;;;;;34.25;14.23;;;6.10;99.90;;;;;;5091950;28;20016;-63
2022/01/24 14:09:44;;;;;;;42.60;16.45;;;6.10;99.90;;;;;;5091826;28;20039;-63
2022/01/24 14:12:39;;;;;;;37.30;14.88;;;6.10;99.90;;;;;;5091326;28;20043;-63
2022/01/24 14:15:12;;;;;;;40.42;15.25;;;6.10;99.90;;;;;;5092095;28;20073;-63
2022/01/24 14:18:04;;;;;;;32.90;14.73;;;6.00;99.90;;;;;;5092495;28;20087;-62
2022/01/24 14:20:30;;;;;;;29.77;14.45;;;6.10;99.90;;;;;;5091507;28;20040;-63
2022/01/24 14:22:56;;;;;;;34.28;14.18;;;6.10;99.90;;;;;;5091977;28;20153;-63
2022/01/24 14:25:25;;;;;;;35.10;15.85;;;6.10;99.90;;;;;;5090064;28;20031;-63
2022/01/24 14:27:53;;;;;;;34.67;14.63;;;6.10;99.90;;;;;;5092197;28;20508;-63
2022/01/24 14:30:27;;;;;;;37.97;15.38;;;6.00;99.90;;;;;;5091804;28;20066;-64
2022/01/24 14:33:13;;;;;;;34.65;14.88;;;6.00;99.90;;;;;;5091290;28;20051;-63
2022/01/24 14:35:54;;;;;;;35.03;15.20;;;6.00;99.90;;;;;;5074064;28;20379;-63
2022/01/24 14:38:33;;;;;;;33.80;15.45;;;6.00;99.90;;;;;;5091679;28;20442;-62
2022/01/24 14:41:07;;;;;;;31.65;15.52;;;6.00;99.90;;;;;;5091396;28;20024;-62
2022/01/24 14:46:22;;;;;;;31.35;15.48;;;6.00;99.90;;;;;;5091922;28;20097;-62
2022/01/24 14:48:57;;;;;;;30.38;14.40;;;6.00;99.90;;;;;;5091449;28;20455;-63